ZGSZ METAR and TAF | Updated Today

ZGSZ METAR

Shenzhen Bao'an International Airport

Observation time: 62 min. ago

ZGSZ 032200Z 03004MPS CAVOK 14/M02 Q1022 NOSIG

Need help? Read our tutorial on how to read METARs or read the parsed version below.

Shenzhen Bao'an International Airport (ZGSZ) METAR

  • Weather conditions on Fri, 03 Dec 2021 22:00:00 +0000 (62 min. ago):
  • Present conditions: Dry
  • Clouds: Clear skies
  • Visibility: Greater than 10 km
  • Wind: 30 degrees at 4 knots
  • Temperature: 14 celsius
  • Dew point: -2 celsius
  • Pressure: 1022 millibars
  • Remarks: None


Useful to know...

ZGSZ TAF

Shenzhen Bao'an International Airport

TAF ZGSZ 031510Z 0318/0418 02004G09MPS CAVOK TX23/0406Z TN12/0322Z
Observation time: 7:52 hr. ago
Need help? Read our tutorial on how to read TAFs or read the parsed version below.

Parsed version of TAF for Shenzhen Bao'an International Airport (ZGSZ)

  • From 03 December at 18:00 UTC, to day 04 of the month at 18:00 UTC
  • Visibility: Greater than 10 km
  • Wind: 20 degrees at 4